Time;durP1;ratioP1;P1;durP2;ratioP2;P2;SDS_P1;SDS_P2;PMS_P1;PMS_P2;Temp;Humidity;BMP_temperature;BMP_pressure;BME280_temperature;BME280_humidity;BME280_pressure;Samples;Min_cycle;Max_cycle;Signal;HPM_P1;HPM_P2
2021/10/27 00:01:48;;;;;;;3.05;1.70;;;22.40;52.30;;;;;;4987047;28;20475;-62
2021/10/27 00:04:14;;;;;;;2.70;1.80;;;22.40;52.30;;;;;;4978917;28;20029;-64
2021/10/27 00:06:40;;;;;;;2.28;1.40;;;22.40;52.30;;;;;;4983774;28;20029;-58
2021/10/27 00:09:06;;;;;;;2.45;1.42;;;22.40;52.30;;;;;;4986586;28;20025;-61
2021/10/27 00:11:33;;;;;;;2.40;1.45;;;22.40;52.30;;;;;;4985090;28;20117;-57
2021/10/27 00:13:59;;;;;;;2.78;1.50;;;22.40;52.40;;;;;;4996690;28;20034;-57
2021/10/27 00:16:28;;;;;;;2.63;1.60;;;22.40;52.40;;;;;;4986889;28;20034;-63
2021/10/27 00:18:53;;;;;;;2.40;1.55;;;22.40;52.40;;;;;;4977786;28;20038;-63
2021/10/27 00:21:19;;;;;;;3.30;1.33;;;22.40;52.40;;;;;;4983134;28;20080;-60
2021/10/27 00:23:45;;;;;;;2.63;1.20;;;22.40;52.40;;;;;;4990515;28;20038;-62
2021/10/27 00:26:10;;;;;;;2.38;1.30;;;22.30;52.30;;;;;;4987302;28;20031;-59
2021/10/27 00:28:36;;;;;;;2.30;1.40;;;22.30;52.40;;;;;;4979670;28;20117;-60
2021/10/27 00:31:01;;;;;;;1.73;1.13;;;22.40;52.40;;;;;;4982711;28;20113;-62
2021/10/27 00:33:27;;;;;;;2.65;1.60;;;22.30;52.40;;;;;;4979076;28;20500;-58
2021/10/27 00:35:53;;;;;;;2.42;1.40;;;22.30;52.40;;;;;;4993453;28;20027;-61
2021/10/27 00:38:19;;;;;;;1.90;1.30;;;22.30;52.40;;;;;;4980900;28;20029;-63
2021/10/27 00:40:46;;;;;;;2.33;1.42;;;22.30;52.40;;;;;;4982273;28;20049;-63
2021/10/27 00:43:12;;;;;;;2.13;1.50;;;22.30;52.40;;;;;;4986090;28;20040;-60
2021/10/27 00:45:37;;;;;;;2.65;1.55;;;22.30;52.40;;;;;;4985870;28;20117;-59
2021/10/27 00:48:03;;;;;;;2.20;1.30;;;22.20;52.40;;;;;;4987440;28;20038;-59
2021/10/27 00:50:31;;;;;;;2.33;1.35;;;22.20;52.40;;;;;;4986594;28;20126;-58
2021/10/27 00:52:56;;;;;;;2.55;1.38;;;22.20;52.40;;;;;;4978705;28;20590;-60
2021/10/27 00:55:23;;;;;;;2.60;1.60;;;22.20;52.40;;;;;;4985859;28;20048;-51
2021/10/27 00:57:49;;;;;;;1.92;1.30;;;22.20;52.40;;;;;;4986118;28;20058;-57
2021/10/27 01:00:15;;;;;;;2.53;1.38;;;22.20;52.50;;;;;;4982472;28;20061;-63
2021/10/27 01:02:41;;;;;;;1.77;1.27;;;22.20;52.50;;;;;;4982975;28;20148;-57
2021/10/27 01:05:08;;;;;;;1.83;1.20;;;22.20;52.50;;;;;;4993468;28;20427;-57
2021/10/27 01:07:34;;;;;;;2.42;1.60;;;22.20;52.50;;;;;;4985321;28;20077;-63
2021/10/27 01:09:59;;;;;;;3.63;1.40;;;22.20;52.50;;;;;;4984776;28;20505;-57
2021/10/27 01:12:25;;;;;;;2.65;1.60;;;22.20;52.50;;;;;;4975526;28;20019;-57
2021/10/27 01:14:51;;;;;;;2.95;1.38;;;22.20;52.50;;;;;;4984660;28;20045;-58
2021/10/27 01:17:18;;;;;;;1.70;1.20;;;22.10;52.90;;;;;;4984971;28;20168;-63
2021/10/27 01:19:54;;;;;;;1.85;1.27;;;22.10;52.50;;;;;;4987649;28;20116;-59
2021/10/27 01:22:31;;;;;;;2.28;1.40;;;22.20;52.50;;;;;;4975418;28;20133;-57
2021/10/27 01:24:59;;;;;;;2.30;1.40;;;22.10;52.50;;;;;;4976706;28;20038;-58
2021/10/27 01:27:24;;;;;;;2.30;1.30;;;22.10;52.50;;;;;;4978683;28;20042;-59
2021/10/27 01:29:51;;;;;;;1.75;1.10;;;22.10;52.60;;;;;;4984676;28;20042;-60
2021/10/27 01:32:31;;;;;;;1.48;1.17;;;22.10;52.50;;;;;;4983721;28;20145;-60
2021/10/27 01:35:00;;;;;;;2.67;1.48;;;22.10;52.50;;;;;;4986042;28;20042;-63
2021/10/27 01:37:26;;;;;;;;;;;22.10;52.50;;;;;;4982258;28;20037;-60
2021/10/27 01:39:53;;;;;;;2.00;1.30;;;22.10;52.60;;;;;;4982558;28;19918;-59
2021/10/27 01:42:20;;;;;;;2.15;1.38;;;22.10;52.50;;;;;;4984054;28;20026;-62
2021/10/27 01:44:46;;;;;;;2.20;1.50;;;22.10;52.60;;;;;;4985810;28;20447;-60
2021/10/27 01:47:12;;;;;;;1.83;1.30;;;22.10;52.60;;;;;;4987922;28;20038;-60
2021/10/27 01:49:37;;;;;;;1.95;1.33;;;22.00;52.90;;;;;;4988872;28;20046;-63
2021/10/27 01:52:04;;;;;;;2.00;1.30;;;22.00;52.60;;;;;;4987615;28;20134;-60
2021/10/27 01:54:30;;;;;;;1.83;1.20;;;22.00;52.60;;;;;;4987204;28;20047;-58
2021/10/27 01:56:56;;;;;;;2.40;1.40;;;22.00;52.60;;;;;;4988465;28;20502;-60
2021/10/27 01:59:22;;;;;;;2.00;1.20;;;22.00;52.60;;;;;;4987855;28;20145;-60
2021/10/27 02:01:49;;;;;;;2.80;1.40;;;22.00;52.60;;;;;;4995058;28;20466;-58
2021/10/27 02:04:17;;;;;;;1.90;1.42;;;22.00;52.60;;;;;;4988383;28;20034;-60
2021/10/27 02:06:43;;;;;;;2.35;1.40;;;22.00;52.60;;;;;;4986510;28;20684;-60
2021/10/27 02:09:08;;;;;;;2.00;1.27;;;22.00;52.60;;;;;;4989166;28;20034;-60
2021/10/27 02:11:34;;;;;;;1.92;1.30;;;22.00;52.60;;;;;;4986772;28;20022;-62
2021/10/27 02:14:00;;;;;;;1.90;1.10;;;22.00;52.60;;;;;;4994325;28;20041;-59
2021/10/27 02:16:26;;;;;;;1.60;1.10;;;21.90;52.60;;;;;;4989063;28;20396;-59
2021/10/27 02:18:52;;;;;;;1.85;1.25;;;22.00;52.60;;;;;;4989976;28;20344;-63
2021/10/27 02:21:18;;;;;;;1.80;1.25;;;21.90;52.60;;;;;;4986813;28;20486;-60
2021/10/27 02:23:44;;;;;;;1.88;1.30;;;21.90;52.60;;;;;;4995702;28;20069;-55
2021/10/27 02:26:10;;;;;;;1.77;1.20;;;21.90;52.60;;;;;;4989165;28;20486;-58
2021/10/27 02:28:36;;;;;;;1.98;1.40;;;21.90;52.60;;;;;;4988572;28;20049;-60
2021/10/27 02:31:02;;;;;;;2.10;1.25;;;21.90;52.60;;;;;;4985972;28;20486;-56
2021/10/27 02:33:28;;;;;;;2.10;1.30;;;21.90;52.60;;;;;;4989975;28;20049;-63
2021/10/27 02:35:53;;;;;;;1.83;1.10;;;21.90;52.60;;;;;;4984553;28;20031;-63
2021/10/27 02:38:19;;;;;;;2.00;1.20;;;21.90;52.60;;;;;;4987173;28;20034;-57
2021/10/27 02:40:46;;;;;;;2.80;1.40;;;21.90;52.60;;;;;;4977986;28;20553;-60
2021/10/27 02:43:11;;;;;;;1.30;1.05;;;21.90;52.60;;;;;;4979722;28;20026;-60
2021/10/27 02:45:37;;;;;;;1.88;1.20;;;21.90;52.60;;;;;;4983668;28;20115;-58
2021/10/27 02:48:03;;;;;;;1.65;1.20;;;21.90;52.60;;;;;;4995329;28;20038;-63
2021/10/27 02:50:29;;;;;;;1.55;1.00;;;21.90;52.60;;;;;;4986161;28;20442;-60
2021/10/27 02:52:55;;;;;;;2.15;1.27;;;21.90;52.60;;;;;;4982171;28;20046;-60
2021/10/27 02:55:20;;;;;;;1.75;1.20;;;21.90;52.60;;;;;;4988393;28;20149;-62
2021/10/27 02:57:46;;;;;;;1.67;1.30;;;21.80;52.60;;;;;;4990556;28;20077;-59
2021/10/27 03:00:12;;;;;;;1.98;1.30;;;21.80;52.60;;;;;;4988687;28;20061;-57
2021/10/27 03:02:38;;;;;;;1.30;1.00;;;21.80;52.60;;;;;;4987039;28;20596;-58
2021/10/27 03:05:07;;;;;;;1.73;1.33;;;21.80;52.60;;;;;;4988309;28;20022;-59
2021/10/27 03:07:34;;;;;;;1.33;1.10;;;21.80;52.60;;;;;;4986256;28;20049;-59
2021/10/27 03:10:00;;;;;;;2.35;1.38;;;21.80;52.60;;;;;;4986628;28;20022;-60
2021/10/27 03:12:25;;;;;;;1.95;1.40;;;21.80;53.20;;;;;;4986233;28;20861;-59
2021/10/27 03:14:51;;;;;;;2.00;1.25;;;21.80;52.60;;;;;;4988872;28;20049;-57
2021/10/27 03:17:17;;;;;;;1.90;1.30;;;21.80;52.60;;;;;;4988110;28;20053;-60
2021/10/27 03:19:44;;;;;;;1.58;1.20;;;21.80;52.60;;;;;;4986852;28;20133;-57
2021/10/27 03:22:11;;;;;;;3.42;1.25;;;21.80;52.60;;;;;;4985744;28;20600;-59
2021/10/27 03:24:36;;;;;;;1.73;1.17;;;21.80;52.60;;;;;;4987337;28;20029;-58
2021/10/27 03:27:02;;;;;;;1.58;1.00;;;21.80;52.70;;;;;;4987352;28;20036;-56
2021/10/27 03:29:28;;;;;;;1.70;1.10;;;21.80;52.60;;;;;;4981238;28;20034;-60
2021/10/27 03:31:53;;;;;;;1.70;1.20;;;21.80;52.60;;;;;;4985545;28;20034;-59
2021/10/27 03:34:19;;;;;;;1.48;1.17;;;21.80;52.60;;;;;;4984649;28;20033;-58
2021/10/27 03:36:46;;;;;;;1.60;1.10;;;21.70;52.60;;;;;;4986309;28;20105;-60
2021/10/27 03:39:12;;;;;;;1.58;1.10;;;21.80;52.60;;;;;;4984160;28;20264;-61
2021/10/27 03:41:38;;;;;;;2.20;1.30;;;21.80;52.60;;;;;;4982162;28;20114;-58
2021/10/27 03:44:05;;;;;;;1.90;1.20;;;21.80;52.60;;;;;;4981905;28;20121;-63
2021/10/27 03:46:30;;;;;;;1.45;1.13;;;21.80;52.60;;;;;;4980576;28;20031;-63
2021/10/27 03:48:56;;;;;;;2.10;1.38;;;21.80;52.60;;;;;;4976099;28;20037;-58
2021/10/27 03:51:22;;;;;;;2.08;1.27;;;21.70;52.60;;;;;;4984289;28;20169;-61
2021/10/27 03:53:47;;;;;;;1.60;1.20;;;21.70;52.60;;;;;;4978412;28;20463;-59
2021/10/27 03:56:13;;;;;;;1.25;1.00;;;21.70;52.70;;;;;;4987048;28;20658;-59
2021/10/27 03:58:39;;;;;;;2.25;1.40;;;21.80;52.70;;;;;;4982822;28;20034;-56
2021/10/27 04:01:05;;;;;;;1.95;1.15;;;21.70;52.70;;;;;;4983206;28;20509;-57
2021/10/27 04:03:30;;;;;;;1.50;1.13;;;21.70;52.70;;;;;;4986751;28;20121;-62
2021/10/27 04:05:56;;;;;;;2.10;1.25;;;21.70;52.70;;;;;;4976220;28;20078;-60
2021/10/27 04:08:22;;;;;;;1.73;1.10;;;21.70;52.80;;;;;;4985165;28;20387;-63
2021/10/27 04:10:48;;;;;;;3.17;1.10;;;21.70;52.70;;;;;;4982536;28;20041;-60
2021/10/27 04:13:18;;;;;;;1.88;1.02;;;21.70;52.80;;;;;;4982710;28;20050;-62
2021/10/27 04:15:44;;;;;;;1.92;1.10;;;21.70;52.80;;;;;;4985129;28;20034;-61
2021/10/27 04:18:10;;;;;;;2.15;1.40;;;21.70;52.80;;;;;;4984256;28;20044;-60
2021/10/27 04:20:36;;;;;;;2.80;1.10;;;21.70;52.80;;;;;;4978399;28;20038;-60
2021/10/27 04:23:02;;;;;;;2.78;1.25;;;21.70;52.80;;;;;;4981310;28;20117;-59
2021/10/27 04:25:28;;;;;;;2.50;1.10;;;21.70;52.90;;;;;;4984585;28;20122;-56
2021/10/27 04:27:53;;;;;;;1.88;1.30;;;21.70;52.90;;;;;;4983627;28;20037;-60
2021/10/27 04:30:19;;;;;;;2.10;1.38;;;21.70;53.40;;;;;;4987251;28;20038;-64
2021/10/27 04:32:45;;;;;;;2.28;1.25;;;21.70;52.90;;;;;;4984351;28;20022;-60
2021/10/27 04:35:11;;;;;;;1.50;1.13;;;21.70;52.90;;;;;;4984804;28;20108;-62
2021/10/27 04:37:41;;;;;;;1.60;1.20;;;21.70;52.90;;;;;;4976620;28;20039;-60
2021/10/27 04:40:09;;;;;;;2.20;1.20;;;21.70;52.90;;;;;;4983150;28;20030;-55
2021/10/27 04:42:36;;;;;;;1.60;1.10;;;21.70;52.90;;;;;;4988781;28;20042;-60
2021/10/27 04:45:03;;;;;;;2.33;1.08;;;21.70;52.90;;;;;;4989532;28;20057;-60
2021/10/27 04:47:29;;;;;;;1.83;1.30;;;21.60;52.90;;;;;;4977885;28;20023;-57
2021/10/27 04:49:55;;;;;;;1.70;1.15;;;21.60;53.00;;;;;;4986812;28;20037;-61
2021/10/27 04:52:20;;;;;;;2.08;1.08;;;21.70;53.00;;;;;;4981642;28;20398;-60
2021/10/27 04:54:46;;;;;;;1.88;1.20;;;21.70;53.00;;;;;;4985488;28;20065;-60
2021/10/27 04:57:11;;;;;;;1.80;1.10;;;21.70;53.00;;;;;;4988861;28;20477;-59
2021/10/27 04:59:46;;;;;;;1.63;1.00;;;21.60;53.50;;;;;;4982218;28;20157;-63
2021/10/27 05:02:13;;;;;;;1.65;1.10;;;21.60;53.00;;;;;;4986991;28;20046;-63
2021/10/27 05:04:41;;;;;;;1.92;1.20;;;21.60;53.00;;;;;;4981594;28;20053;-60
2021/10/27 05:07:08;;;;;;;1.85;1.17;;;21.60;53.00;;;;;;4983119;28;20414;-61
2021/10/27 05:09:34;;;;;;;1.88;1.00;;;21.60;53.00;;;;;;4983792;28;20446;-61
2021/10/27 05:12:01;;;;;;;2.13;1.00;;;21.60;53.00;;;;;;4989075;28;20046;-60
2021/10/27 05:14:26;;;;;;;2.00;1.20;;;21.60;53.00;;;;;;4984714;28;20521;-60
2021/10/27 05:16:52;;;;;;;1.58;1.05;;;21.60;53.00;;;;;;4986929;28;20121;-60
2021/10/27 05:19:17;;;;;;;1.95;1.20;;;21.60;53.00;;;;;;4984739;28;20026;-60
2021/10/27 05:21:43;;;;;;;2.70;1.20;;;21.60;53.00;;;;;;4986674;28;20107;-61
2021/10/27 05:24:09;;;;;;;2.25;1.23;;;21.60;53.00;;;;;;4987751;28;20034;-60
2021/10/27 05:26:35;;;;;;;1.63;1.00;;;21.60;53.00;;;;;;4990882;28;20070;-60
2021/10/27 05:29:00;;;;;;;2.15;1.17;;;21.60;53.00;;;;;;4974646;28;20169;-62
2021/10/27 05:31:26;;;;;;;1.98;1.10;;;21.60;53.10;;;;;;4990188;28;20039;-60
2021/10/27 05:33:52;;;;;;;3.30;1.42;;;21.60;53.00;;;;;;4991438;28;20081;-60
2021/10/27 05:36:18;;;;;;;2.92;1.20;;;21.60;53.00;;;;;;4986152;28;20015;-60
2021/10/27 05:38:43;;;;;;;2.17;1.20;;;21.60;53.00;;;;;;4988305;28;20109;-60
2021/10/27 05:41:09;;;;;;;1.85;1.00;;;21.60;53.00;;;;;;4988609;28;20026;-60
2021/10/27 05:43:36;;;;;;;1.80;1.00;;;21.60;53.10;;;;;;4989639;28;20047;-60
2021/10/27 05:46:02;;;;;;;2.28;1.05;;;21.60;53.10;;;;;;4990442;28;20081;-60
2021/10/27 05:48:33;;;;;;;4.30;1.20;;;21.60;53.00;;;;;;4982495;28;20053;-60
2021/10/27 05:56:18;;;;;;;2.72;1.10;;;21.60;53.10;;;;;;4990965;28;20099;-62
2021/10/27 05:58:44;;;;;;;2.65;1.40;;;21.50;53.00;;;;;;4988661;28;20118;-60
2021/10/27 06:01:09;;;;;;;3.00;1.30;;;21.50;53.10;;;;;;4988716;28;20042;-60
2021/10/27 06:03:36;;;;;;;3.35;1.20;;;21.60;53.10;;;;;;4990734;28;20109;-60
2021/10/27 06:06:02;;;;;;;3.17;1.20;;;21.50;53.00;;;;;;4989891;28;20455;-60
2021/10/27 06:08:27;;;;;;;2.67;1.25;;;21.50;53.00;;;;;;4988586;28;20042;-60
2021/10/27 06:10:57;;;;;;;2.70;1.30;;;21.50;53.00;;;;;;4980887;28;20037;-63
2021/10/27 06:13:24;;;;;;;2.78;1.40;;;21.50;53.00;;;;;;4989234;28;20405;-62
2021/10/27 06:15:51;;;;;;;2.53;1.40;;;21.50;53.00;;;;;;4982995;28;20042;-59
2021/10/27 06:18:16;;;;;;;2.70;1.30;;;21.50;53.00;;;;;;4990357;28;20114;-63
2021/10/27 06:20:42;;;;;;;2.65;1.33;;;21.50;53.00;;;;;;4984628;28;20145;-60
2021/10/27 06:23:08;;;;;;;2.03;1.23;;;21.50;53.00;;;;;;4989242;28;20110;-60
2021/10/27 06:25:33;;;;;;;2.30;1.20;;;21.50;53.00;;;;;;4990152;28;20026;-59
2021/10/27 06:28:08;;;;;;;2.60;1.40;;;21.50;53.00;;;;;;4985975;28;20073;-63
2021/10/27 06:31:34;;;;;;;2.40;1.30;;;21.50;53.00;;;;;;4981974;28;20722;-61
2021/10/27 06:46:53;;;;;;;2.80;1.40;;;21.50;53.00;;;;;;4986243;28;20034;-63
2021/10/27 06:49:19;;;;;;;1.67;1.10;;;21.50;53.00;;;;;;4989793;28;20819;-60
2021/10/27 06:51:44;;;;;;;2.38;1.10;;;21.50;53.00;;;;;;4976594;28;20041;-60
2021/10/27 06:54:10;;;;;;;2.50;1.20;;;21.50;53.00;;;;;;4988462;28;20691;-60
2021/10/27 06:56:36;;;;;;;2.42;1.20;;;21.40;53.00;;;;;;4989697;28;20026;-60
2021/10/27 06:59:15;;;;;;;1.73;1.20;;;21.40;53.00;;;;;;4989855;28;20217;-61
2021/10/27 07:17:47;;;;;;;2.30;1.23;;;21.40;53.00;;;;;;4988545;28;20030;-60
2021/10/27 07:20:13;;;;;;;2.40;1.30;;;21.40;53.00;;;;;;4986225;28;20050;-60
2021/10/27 07:22:38;;;;;;;2.78;1.17;;;21.40;53.00;;;;;;4974004;28;20483;-60
2021/10/27 07:25:04;;;;;;;3.17;1.30;;;21.40;53.00;;;;;;4989029;28;20400;-62
2021/10/27 07:27:31;;;;;;;1.70;1.13;;;21.40;53.00;;;;;;4988524;28;20030;-60
2021/10/27 07:29:56;;;;;;;2.83;1.42;;;21.40;53.00;;;;;;4977769;28;20031;-60
2021/10/27 07:32:23;;;;;;;1.38;0.93;;;21.40;53.00;;;;;;4983518;28;20045;-60
2021/10/27 07:34:57;;;;;;;1.77;1.17;;;21.40;53.00;;;;;;4988560;28;20104;-60
2021/10/27 07:42:36;;;;;;;2.88;1.30;;;21.40;53.00;;;;;;4985822;28;20038;-62
2021/10/27 07:45:02;;;;;;;2.55;1.23;;;21.40;53.00;;;;;;4989155;28;20030;-60
2021/10/27 07:47:28;;;;;;;3.40;1.30;;;21.40;53.00;;;;;;4983545;28;20500;-60
2021/10/27 07:49:54;;;;;;;2.00;1.15;;;21.40;53.00;;;;;;4989177;28;20038;-61
2021/10/27 07:52:19;;;;;;;2.60;1.20;;;21.40;53.00;;;;;;4984130;28;20033;-63
2021/10/27 07:54:46;;;;;;;1.73;1.05;;;21.40;53.00;;;;;;4987842;28;20442;-60
2021/10/27 07:57:12;;;;;;;1.98;1.10;;;21.40;53.00;;;;;;4983449;28;20117;-62
2021/10/27 07:59:38;;;;;;;1.80;1.15;;;21.40;53.00;;;;;;4980460;28;20372;-60
2021/10/27 08:02:04;;;;;;;1.27;0.88;;;21.30;52.90;;;;;;4986305;28;20046;-60
2021/10/27 08:04:30;;;;;;;2.00;1.20;;;21.30;52.90;;;;;;4988314;28;20018;-60
2021/10/27 08:06:56;;;;;;;2.03;1.10;;;21.30;52.90;;;;;;4985689;28;20434;-60
2021/10/27 08:09:22;;;;;;;1.63;1.05;;;21.30;52.90;;;;;;4986385;28;20043;-62
2021/10/27 08:11:48;;;;;;;1.90;1.10;;;21.30;52.90;;;;;;4985204;28;20146;-60
2021/10/27 08:14:15;;;;;;;2.20;1.27;;;21.30;52.90;;;;;;4979731;28;20088;-60
2021/10/27 08:16:41;;;;;;;1.65;0.90;;;21.30;52.90;;;;;;4987219;28;20034;-59
2021/10/27 08:19:07;;;;;;;2.15;1.25;;;21.30;52.90;;;;;;4979457;28;20034;-60
2021/10/27 08:21:33;;;;;;;2.00;1.13;;;21.30;53.40;;;;;;4981365;28;20034;-62
2021/10/27 08:23:59;;;;;;;2.10;1.20;;;21.30;53.00;;;;;;4985315;28;20038;-60
2021/10/27 08:26:26;;;;;;;2.08;1.25;;;21.30;52.90;;;;;;4987966;28;20108;-62
2021/10/27 08:28:58;;;;;;;2.13;1.17;;;21.30;52.90;;;;;;4982501;28;20675;-63
2021/10/27 08:36:23;;;;;;;1.85;1.20;;;21.30;53.00;;;;;;4987963;28;20018;-60
2021/10/27 08:38:49;;;;;;;1.98;1.17;;;21.30;52.90;;;;;;4983290;28;20034;-62
2021/10/27 08:41:16;;;;;;;2.15;1.30;;;21.30;52.90;;;;;;4979181;28;20042;-58
2021/10/27 08:43:42;;;;;;;1.75;1.15;;;21.30;53.00;;;;;;4983710;28;20458;-60
2021/10/27 08:46:11;;;;;;;2.33;1.05;;;21.30;52.90;;;;;;4987594;28;20076;-60
2021/10/27 08:48:37;;;;;;;2.13;1.10;;;21.30;52.90;;;;;;4978198;28;20106;-60
2021/10/27 08:51:05;;;;;;;1.90;1.00;;;21.30;53.00;;;;;;4989294;28;20031;-62
2021/10/27 08:53:33;;;;;;;1.70;1.13;;;21.30;52.90;;;;;;4983891;28;20478;-63
2021/10/27 08:56:02;;;;;;;2.00;1.00;;;21.30;52.90;;;;;;4989459;28;20057;-59
2021/10/27 08:58:32;;;;;;;1.45;1.00;;;21.30;52.90;;;;;;4992432;28;20026;-60
2021/10/27 09:01:50;;;;;;;2.13;1.02;;;21.30;52.90;;;;;;4993736;28;20030;-59
2021/10/27 09:39:52;;;;;;;2.10;1.10;;;21.20;52.90;;;;;;4979667;28;20421;-60
2021/10/27 10:06:31;;;;;;;2.15;1.15;;;21.20;52.90;;;;;;4982267;28;20610;-60
2021/10/27 10:08:57;;;;;;;1.63;0.90;;;21.20;52.90;;;;;;4974697;28;20575;-60
2021/10/27 10:11:24;;;;;;;1.30;0.90;;;21.10;52.90;;;;;;4984056;28;20049;-59
2021/10/27 10:13:53;;;;;;;1.83;1.10;;;21.10;52.90;;;;;;4979195;28;20042;-63
2021/10/27 10:16:19;;;;;;;;;;;21.10;52.90;;;;;;4987796;28;20045;-60
2021/10/27 10:18:47;;;;;;;1.25;1.00;;;21.10;52.90;;;;;;4989293;28;20326;-60
2021/10/27 10:21:26;;;;;;;1.50;1.00;;;21.10;52.90;;;;;;4988273;28;20096;-60
2021/10/27 10:24:11;;;;;;;;;;;21.10;52.90;;;;;;4983434;28;20480;-60
2021/10/27 10:26:39;;;;;;;1.42;0.90;;;21.10;52.90;;;;;;4984344;28;19905;-60
2021/10/27 10:29:04;;;;;;;1.90;1.20;;;21.10;52.90;;;;;;4989359;28;20359;-60
2021/10/27 10:31:32;;;;;;;1.60;0.95;;;21.10;52.90;;;;;;4989164;28;20045;-63
2021/10/27 10:34:03;;;;;;;1.88;1.23;;;21.10;52.90;;;;;;4987711;28;20343;-61
2021/10/27 10:36:32;;;;;;;2.05;1.15;;;21.10;52.90;;;;;;4984756;28;20386;-60
2021/10/27 10:39:45;;;;;;;1.65;1.10;;;21.10;52.90;;;;;;4981868;28;20037;-61
2021/10/27 10:56:55;;;;;;;1.50;1.00;;;21.10;52.90;;;;;;4982554;28;20084;-60
2021/10/27 11:00:32;;;;;;;1.98;1.13;;;21.10;52.90;;;;;;4979063;28;20161;-60
2021/10/27 11:25:30;;;;;;;1.73;0.90;;;21.10;53.00;;;;;;4982351;28;20034;-62
2021/10/27 11:39:44;;;;;;;1.63;1.10;;;21.00;52.90;;;;;;4987345;28;20036;-60
2021/10/27 11:42:55;;;;;;;1.60;1.20;;;21.00;52.80;;;;;;4980011;28;20057;-58
2021/10/27 11:46:13;;;;;;;1.92;1.30;;;21.00;52.80;;;;;;4981348;28;20038;-59
2021/10/27 11:48:21;;;;;;;2.13;1.30;;;21.00;52.80;;;;;;4989957;28;20138;-58
2021/10/27 11:50:48;;;;;;;2.05;1.35;;;21.00;52.80;;;;;;4984496;28;20059;-61
2021/10/27 11:53:31;;;;;;;2.35;1.52;;;21.00;52.80;;;;;;4985193;28;20030;-59
2021/10/27 11:56:08;;;;;;;2.80;1.80;;;21.00;52.80;;;;;;4986934;28;20081;-59
2021/10/27 11:58:41;;;;;;;4.25;2.15;;;21.00;52.80;;;;;;4987334;28;20403;-60
2021/10/27 12:01:12;;;;;;;3.08;2.08;;;21.00;52.80;;;;;;4985611;28;20094;-60
2021/10/27 12:03:40;;;;;;;4.35;2.20;;;21.00;52.70;;;;;;4986060;28;20524;-59
2021/10/27 12:06:16;;;;;;;3.67;2.33;;;21.00;52.70;;;;;;4986090;28;20046;-60
2021/10/27 12:11:33;;;;;;;4.63;3.03;;;21.00;52.70;;;;;;4987142;28;20110;-60
2021/10/27 12:14:36;;;;;;;6.75;3.22;;;21.00;52.70;;;;;;4983658;28;20069;-58
2021/10/27 12:17:31;;;;;;;5.45;3.08;;;21.00;52.60;;;;;;4976267;28;20022;-60
2021/10/27 12:19:57;;;;;;;4.60;3.05;;;21.00;52.70;;;;;;4987325;28;20042;-59
2021/10/27 12:22:24;;;;;;;5.80;3.50;;;21.00;52.70;;;;;;4987398;28;20116;-59
2021/10/27 12:25:00;;;;;;;5.50;3.45;;;21.00;52.60;;;;;;4982641;28;20034;-59
2021/10/27 12:27:33;;;;;;;4.18;2.88;;;21.00;52.60;;;;;;4986846;28;20034;-59
2021/10/27 12:30:07;;;;;;;4.82;3.15;;;20.90;52.60;;;;;;4987750;28;20352;-59
2021/10/27 12:32:34;;;;;;;5.60;3.40;;;21.00;52.60;;;;;;4986083;28;20088;-60
2021/10/27 12:35:06;;;;;;;5.55;3.47;;;21.00;52.60;;;;;;4977939;28;20526;-59
2021/10/27 12:37:39;;;;;;;4.30;3.15;;;21.00;52.60;;;;;;4984618;28;20022;-59
2021/10/27 12:42:59;;;;;;;4.65;3.30;;;21.00;52.60;;;;;;4979688;28;20122;-58
2021/10/27 12:45:39;;;;;;;6.32;3.35;;;20.90;52.60;;;;;;4983446;28;20042;-58
2021/10/27 12:48:17;;;;;;;4.68;3.08;;;21.00;52.60;;;;;;4985395;28;20498;-59
2021/10/27 12:51:01;;;;;;;5.30;3.03;;;21.00;52.60;;;;;;4984400;28;20030;-59
2021/10/27 12:53:39;;;;;;;4.53;3.30;;;20.90;52.60;;;;;;4980822;28;20030;-59
2021/10/27 12:56:04;;;;;;;5.45;3.20;;;20.90;52.60;;;;;;4986903;28;20232;-59
2021/10/27 12:58:33;;;;;;;4.70;3.10;;;20.90;52.60;;;;;;4986226;28;20113;-62
2021/10/27 13:01:14;;;;;;;4.05;2.95;;;20.90;52.60;;;;;;4984905;28;20674;-59
2021/10/27 13:09:22;;;;;;;5.05;3.33;;;20.90;52.60;;;;;;4984696;28;20228;-59
2021/10/27 13:30:28;;;;;;;5.18;2.78;;;20.90;52.60;;;;;;4981351;28;20034;-62
2021/10/27 13:32:56;;;;;;;4.57;3.05;;;20.90;52.70;;;;;;4981025;28;20045;-59
2021/10/27 13:35:22;;;;;;;4.78;2.75;;;20.90;52.70;;;;;;4981161;28;20041;-60
2021/10/27 13:37:49;;;;;;;4.25;2.75;;;20.90;52.80;;;;;;4981716;28;20038;-59
2021/10/27 13:40:15;;;;;;;5.43;3.28;;;20.90;52.80;;;;;;4984523;28;20114;-59
2021/10/27 13:45:35;;;;;;;6.18;3.08;;;21.00;52.80;;;;;;4985107;28;20106;-60
2021/10/27 13:48:11;;;;;;;4.90;2.87;;;21.00;52.90;;;;;;4977209;28;20035;-60
2021/10/27 13:59:08;;;;;;;4.82;2.50;;;21.00;53.00;;;;;;4986137;28;20112;-60
2021/10/27 14:07:06;;;;;;;4.03;2.70;;;21.00;53.10;;;;;;4983219;28;20050;-60
2021/10/27 14:09:42;;;;;;;4.65;2.78;;;21.00;53.10;;;;;;4984076;28;20680;-60
2021/10/27 14:23:18;;;;;;;3.92;2.63;;;21.00;53.20;;;;;;4984424;28;20518;-60
2021/10/27 14:50:27;;;;;;;3.70;2.38;;;21.00;53.40;;;;;;4986695;28;20121;-60
2021/10/27 15:21:08;;;;;;;3.40;2.20;;;21.00;53.40;;;;;;4977002;28;20053;-60
2021/10/27 15:31:54;;;;;;;3.72;2.50;;;21.00;53.40;;;;;;4957020;28;20037;-62
2021/10/27 15:34:47;;;;;;;4.40;2.60;;;21.00;53.40;;;;;;4965238;28;20061;-60
2021/10/27 15:40:19;;;;;;;4.18;2.30;;;21.00;53.40;;;;;;4968005;28;20034;-61
2021/10/27 15:40:32;;;;;;;3.45;2.10;;;21.00;53.40;;;;;;4955422;28;20098;-60
2021/10/27 15:51:05;;;;;;;4.88;2.50;;;21.00;53.40;;;;;;4967588;28;20051;-60
2021/10/27 15:53:27;;;;;;;4.90;2.30;;;21.10;53.50;;;;;;4961886;28;20070;-60
2021/10/27 15:55:54;;;;;;;3.65;2.17;;;21.00;53.40;;;;;;4960449;28;20100;-60
2021/10/27 15:58:20;;;;;;;2.83;2.08;;;21.00;53.40;;;;;;4966526;28;20039;-60
2021/10/27 16:00:45;;;;;;;3.80;2.58;;;21.00;53.40;;;;;;4970350;28;20085;-60
2021/10/27 16:03:12;;;;;;;3.95;2.33;;;21.00;53.40;;;;;;4963998;28;20046;-60
2021/10/27 16:05:39;;;;;;;3.22;2.10;;;21.00;53.40;;;;;;4967138;28;20434;-60
2021/10/27 16:08:11;;;;;;;4.38;2.58;;;21.00;53.40;;;;;;4960324;28;20492;-60
2021/10/27 16:10:37;;;;;;;3.83;2.25;;;21.00;53.30;;;;;;4959893;28;20113;-60
2021/10/27 16:13:03;;;;;;;3.28;2.30;;;21.00;53.30;;;;;;4963698;28;20121;-61
2021/10/27 16:15:51;;;;;;;5.32;2.30;;;21.00;53.30;;;;;;4960563;28;20038;-59
2021/10/27 16:18:17;;;;;;;3.20;2.03;;;21.00;53.30;;;;;;4963209;28;20057;-60
2021/10/27 16:20:44;;;;;;;3.47;2.15;;;21.00;53.30;;;;;;4963414;28;20674;-58
2021/10/27 16:23:12;;;;;;;3.45;2.30;;;21.00;53.30;;;;;;4962459;28;20038;-60
2021/10/27 16:25:39;;;;;;;3.72;2.25;;;21.00;53.30;;;;;;4962267;28;20039;-61
2021/10/27 16:28:06;;;;;;;3.38;2.10;;;21.00;53.30;;;;;;4965026;28;20063;-59
2021/10/27 16:30:33;;;;;;;3.40;2.00;;;21.00;53.30;;;;;;4967782;28;20038;-62
2021/10/27 16:32:59;;;;;;;2.97;2.03;;;21.00;53.30;;;;;;4984001;28;20379;-59
2021/10/27 16:35:25;;;;;;;3.17;1.85;;;21.00;53.30;;;;;;4981757;28;20065;-60
2021/10/27 16:37:51;;;;;;;3.17;2.00;;;21.00;53.30;;;;;;4978710;28;20777;-60
2021/10/27 16:40:17;;;;;;;4.35;2.20;;;21.00;53.30;;;;;;4981779;28;20109;-60
2021/10/27 16:42:42;;;;;;;3.42;2.05;;;21.00;53.30;;;;;;4982280;28;20037;-61
2021/10/27 16:45:10;;;;;;;3.50;2.00;;;21.00;53.30;;;;;;4981226;28;20169;-57
2021/10/27 16:47:36;;;;;;;3.45;1.80;;;21.00;53.30;;;;;;4979977;28;20033;-55
2021/10/27 16:50:04;;;;;;;4.47;1.80;;;21.00;53.30;;;;;;4982485;28;20026;-60
2021/10/27 16:52:30;;;;;;;2.90;1.80;;;21.00;53.80;;;;;;4971358;28;20140;-59
2021/10/27 16:54:56;;;;;;;4.20;2.20;;;21.00;53.30;;;;;;4976830;28;20038;-61
2021/10/27 16:57:23;;;;;;;3.13;1.80;;;21.00;53.30;;;;;;4977673;28;20053;-58
2021/10/27 16:59:49;;;;;;;4.07;2.20;;;21.00;53.30;;;;;;4995322;28;20717;-58
2021/10/27 17:02:14;;;;;;;3.40;2.20;;;21.00;53.30;;;;;;4979492;28;20042;-62
2021/10/27 17:04:40;;;;;;;3.53;1.90;;;21.00;53.40;;;;;;4976210;28;20037;-57
2021/10/27 17:07:06;;;;;;;3.30;1.83;;;21.00;53.40;;;;;;4980687;28;20490;-59
2021/10/27 17:09:32;;;;;;;3.97;2.15;;;21.00;53.30;;;;;;4980169;28;20119;-58
2021/10/27 17:11:58;;;;;;;3.28;2.20;;;21.00;53.40;;;;;;4978326;28;20448;-59
2021/10/27 17:14:24;;;;;;;3.13;2.10;;;21.00;53.40;;;;;;4985193;28;20057;-59
2021/10/27 17:16:49;;;;;;;3.25;2.22;;;21.00;53.40;;;;;;4987881;28;20450;-59
2021/10/27 17:19:15;;;;;;;2.72;1.88;;;21.00;53.40;;;;;;4984783;28;20034;-58
2021/10/27 17:21:42;;;;;;;3.08;1.90;;;21.00;53.40;;;;;;4984719;28;20541;-60
2021/10/27 17:24:08;;;;;;;3.40;1.70;;;21.00;53.40;;;;;;4975904;28;20026;-58
2021/10/27 17:26:35;;;;;;;3.25;1.70;;;21.00;53.40;;;;;;4986047;28;20045;-57
2021/10/27 17:29:02;;;;;;;3.67;1.77;;;21.00;53.40;;;;;;4982853;28;20081;-56
2021/10/27 17:31:28;;;;;;;2.80;1.90;;;21.00;53.50;;;;;;4984385;28;20041;-61
2021/10/27 17:33:54;;;;;;;3.75;2.20;;;21.00;53.50;;;;;;4985115;28;20049;-59
2021/10/27 17:36:22;;;;;;;3.63;2.10;;;21.00;53.50;;;;;;4984315;28;20097;-56